Time;durP1;ratioP1;P1;durP2;ratioP2;P2;SDS_P1;SDS_P2;PMS_P1;PMS_P2;Temp;Humidity;BMP_temperature;BMP_pressure;BME280_temperature;BME280_humidity;BME280_pressure;Samples;Min_cycle;Max_cycle;Signal;HPM_P1;HPM_P2
2022/06/08 00:01:16;;;;;;;28.63;16.73;;;;;;;21.12;100.00;100944.47;5041401;28;20290;-47
2022/06/08 00:03:53;;;;;;;35.03;16.87;;;;;;;21.16;100.00;100940.13;5122081;28;20267;-47
2022/06/08 00:06:18;;;;;;;;;;;;;;;21.10;100.00;100942.00;5033416;28;20034;-47
2022/06/08 00:08:45;;;;;;;35.67;16.57;;;;;;;21.17;100.00;100939.88;5023245;28;19996;-45
2022/06/08 00:11:11;;;;;;;30.40;17.02;;;;;;;21.29;100.00;100947.00;5026238;28;20366;-47
2022/06/08 00:13:38;;;;;;;31.88;17.45;;;;;;;20.89;100.00;100943.78;5025804;28;20083;-46
2022/06/08 00:16:05;;;;;;;31.53;16.97;;;;;;;21.10;100.00;100943.91;5028824;28;20045;-49
2022/06/08 00:18:30;;;;;;;32.93;17.37;;;;;;;20.88;100.00;100939.44;5020813;28;20319;-47
2022/06/08 00:20:56;;;;;;;30.97;17.13;;;;;;;20.34;100.00;100933.06;5021693;28;20272;-46
2022/06/08 00:23:22;;;;;;;35.22;17.33;;;;;;;20.63;100.00;100932.72;5027702;28;20032;-46
2022/06/08 00:25:47;;;;;;;34.60;18.53;;;;;;;20.43;100.00;100936.13;5032536;28;20033;-47
2022/06/08 00:28:14;;;;;;;35.33;18.52;;;;;;;20.76;100.00;100931.47;5027568;28;20279;-46
2022/06/08 00:30:40;;;;;;;29.83;17.10;;;;;;;20.61;100.00;100932.19;5021900;28;20083;-52
2022/06/08 00:33:07;;;;;;;39.10;19.70;;;;;;;20.75;100.00;100927.91;4999628;28;20364;-50
2022/06/08 00:35:32;;;;;;;32.13;18.73;;;;;;;20.77;100.00;100923.06;5009167;28;20042;-51
2022/06/08 00:37:57;;;;;;;35.80;18.10;;;;;;;20.53;100.00;100935.34;4995750;28;20046;-50
2022/06/08 00:40:33;;;;;;;35.83;19.30;;;;;;;20.53;100.00;100925.31;5012748;28;20068;-46
2022/06/08 00:42:58;;;;;;;37.93;20.23;;;;;;;20.15;100.00;100917.16;5000555;28;20034;-51
2022/06/08 00:45:24;;;;;;;36.17;18.48;;;;;;;19.99;100.00;100915.38;5007902;28;20279;-48
2022/06/08 00:47:56;;;;;;;42.15;18.65;;;;;;;20.37;100.00;100918.97;5009546;28;20041;-50
2022/06/08 00:50:26;;;;;;;37.90;19.50;;;;;;;20.49;100.00;100913.34;4999473;28;20042;-47
2022/06/08 00:52:53;;;;;;;42.60;20.50;;;;;;;20.57;100.00;100912.84;5002399;28;20288;-46
2022/06/08 00:55:23;;;;;;;38.57;19.80;;;;;;;20.40;100.00;100914.88;5007036;28;20284;-47
2022/06/08 00:57:53;;;;;;;41.03;19.97;;;;;;;20.50;100.00;100904.13;4995387;28;20330;-46
2022/06/08 01:00:23;;;;;;;42.33;21.63;;;;;;;20.49;100.00;100892.41;5006805;28;20272;-45
2022/06/08 01:02:48;;;;;;;43.07;22.23;;;;;;;20.36;100.00;100890.16;5003056;28;20347;-46
2022/06/08 01:05:31;;;;;;;38.20;20.47;;;;;;;20.26;100.00;100893.63;4997929;28;20280;-47
2022/06/08 01:08:20;;;;;;;40.97;21.17;;;;;;;20.34;100.00;100895.84;5007985;28;20284;-47
2022/06/08 01:10:50;;;;;;;40.40;21.10;;;;;;;20.35;100.00;100892.06;5001377;28;20279;-48
2022/06/08 01:13:20;;;;;;;36.67;20.70;;;;;;;20.16;100.00;100890.81;4998268;28;20348;-45
2022/06/08 01:15:48;;;;;;;42.30;23.47;;;;;;;20.18;100.00;100889.47;5008002;28;20308;-47
2022/06/08 01:18:17;;;;;;;43.90;19.80;;;;;;;20.27;100.00;100883.56;4997334;28;20315;-47
2022/06/08 01:20:48;;;;;;;41.27;21.07;;;;;;;20.30;100.00;100886.59;5002241;28;20277;-46
2022/06/08 01:23:16;;;;;;;41.53;21.10;;;;;;;20.34;100.00;100881.47;5005086;28;20282;-49
2022/06/08 01:25:57;;;;;;;45.40;23.15;;;;;;;20.72;100.00;100876.81;5011301;28;20337;-47
2022/06/08 01:29:00;;;;;;;40.03;21.23;;;;;;;20.54;100.00;100871.81;5005052;28;20080;-46
2022/06/08 01:31:49;;;;;;;41.33;21.07;;;;;;;20.64;100.00;100861.00;5006387;28;20310;-44
2022/06/08 01:34:22;;;;;;;43.40;21.63;;;;;;;20.51;100.00;100858.75;5005886;28;20273;-51
2022/06/08 01:37:00;;;;;;;43.50;23.20;;;;;;;20.32;100.00;100859.19;5002076;28;20347;-49
2022/06/08 01:39:47;;;;;;;45.07;24.40;;;;;;;20.28;100.00;100850.72;4996344;28;20276;-48
2022/06/08 01:42:31;;;;;;;45.85;23.67;;;;;;;20.09;100.00;100854.91;4997254;28;20268;-49
2022/06/08 01:46:07;;;;;;;47.77;24.07;;;;;;;19.77;100.00;100843.78;4999244;28;20042;-45
2022/06/08 01:48:38;;;;;;;44.97;24.70;;;;;;;19.74;100.00;100833.44;5017622;28;20291;-47
2022/06/08 01:51:36;;;;;;;51.70;25.23;;;;;;;19.91;100.00;100827.91;5024709;28;20275;-46
2022/06/08 01:54:27;;;;;;;54.63;27.07;;;;;;;19.68;100.00;100823.59;4996157;28;20285;-46
2022/06/08 01:57:01;;;;;;;49.87;25.40;;;;;;;19.51;100.00;100818.28;5008340;28;20297;-48
2022/06/08 01:59:41;;;;;;;51.90;26.53;;;;;;;20.13;100.00;100826.16;5002439;28;20311;-48
2022/06/08 02:02:25;;;;;;;56.00;28.80;;;;;;;20.10;100.00;100824.81;5001840;28;20283;-45
2022/06/08 02:04:54;;;;;;;53.90;26.13;;;;;;;19.49;100.00;100821.28;5007502;28;20264;-46
2022/06/08 02:07:34;;;;;;;53.07;27.53;;;;;;;19.47;100.00;100809.03;5012358;28;20685;-48
2022/06/08 02:10:08;;;;;;;60.63;29.20;;;;;;;19.22;100.00;100810.41;5000934;28;20267;-46
2022/06/08 02:12:39;;;;;;;55.40;29.07;;;;;;;19.61;100.00;100809.44;5009659;28;20336;-46
2022/06/08 02:15:22;;;;;;;62.80;30.20;;;;;;;19.46;100.00;100805.50;5009633;28;20308;-47
2022/06/08 02:17:52;;;;;;;63.90;30.90;;;;;;;19.45;100.00;100797.63;4998949;28;20284;-46
2022/06/08 02:20:40;;;;;;;69.07;31.23;;;;;;;19.50;100.00;100792.25;5012163;28;20267;-48
2022/06/08 02:23:20;;;;;;;76.43;32.97;;;;;;;19.30;100.00;100782.84;5010573;28;20268;-47
2022/06/08 02:25:53;;;;;;;67.47;33.83;;;;;;;19.06;100.00;100780.41;5000752;28;20276;-46
2022/06/08 02:28:27;;;;;;;68.43;32.77;;;;;;;19.06;100.00;100776.91;4997517;28;20360;-48
2022/06/08 02:31:17;;;;;;;69.90;32.87;;;;;;;19.08;100.00;100782.06;5007359;28;20279;-46
2022/06/08 02:36:39;;;;;;;74.23;34.80;;;;;;;19.15;100.00;100766.44;5009887;28;20337;-49
2022/06/08 02:39:22;;;;;;;71.30;35.03;;;;;;;19.31;100.00;100768.19;5008395;28;20256;-49
2022/06/08 02:41:54;;;;;;;73.70;36.13;;;;;;;19.22;100.00;100761.63;5000410;28;20312;-47
2022/06/08 02:44:26;;;;;;;76.60;35.17;;;;;;;19.22;100.00;100756.19;5012139;28;20343;-49
2022/06/08 02:47:02;;;;;;;75.87;34.70;;;;;;;18.99;100.00;100758.13;5007905;28;20272;-49
2022/06/08 02:49:34;;;;;;;75.80;34.43;;;;;;;18.99;100.00;100755.41;5001435;28;20273;-49
2022/06/08 02:52:10;;;;;;;75.50;36.53;;;;;;;19.42;100.00;100752.03;5013093;28;20307;-51
2022/06/08 02:54:36;;;;;;;75.83;36.17;;;;;;;19.09;100.00;100748.44;5004781;28;20288;-48
2022/06/08 02:57:11;;;;;;;72.87;37.53;;;;;;;18.99;100.00;100747.28;5005424;28;20283;-48
2022/06/08 02:59:41;;;;;;;74.67;36.37;;;;;;;18.97;100.00;100749.41;5013704;28;20336;-47
2022/06/08 03:02:17;;;;;;;70.90;35.43;;;;;;;18.89;100.00;100747.97;5000850;28;20263;-48
2022/06/08 03:04:54;;;;;;;76.18;37.22;;;;;;;18.99;100.00;100744.56;5015759;28;20272;-49
2022/06/08 03:07:26;;;;;;;72.53;35.20;;;;;;;18.80;100.00;100741.34;5012701;28;20042;-47
2022/06/08 03:09:54;;;;;;;80.83;38.00;;;;;;;18.71;100.00;100734.72;5011582;28;20283;-49
2022/06/08 03:12:29;;;;;;;69.57;34.33;;;;;;;18.87;100.00;100739.25;4999971;28;20275;-48
2022/06/08 03:14:56;;;;;;;73.80;35.53;;;;;;;18.71;100.00;100730.16;5003700;28;20285;-48
2022/06/08 03:17:31;;;;;;;69.87;35.33;;;;;;;18.66;100.00;100732.78;5008257;28;20335;-46
2022/06/08 03:19:57;;;;;;;76.00;35.77;;;;;;;18.77;100.00;100733.72;4996398;28;20285;-49
2022/06/08 03:22:23;;;;;;;70.47;33.53;;;;;;;18.84;100.00;100730.81;5007433;28;20273;-46
2022/06/08 03:24:49;;;;;;;69.70;33.58;;;;;;;19.08;100.00;100733.28;5002634;28;20066;-46
2022/06/08 03:27:19;;;;;;;71.87;35.40;;;;;;;19.26;100.00;100734.78;5013061;28;20035;-47
2022/06/08 03:29:49;;;;;;;68.07;35.97;;;;;;;19.11;100.00;100732.75;4996532;28;20283;-46
2022/06/08 03:32:16;;;;;;;72.00;35.17;;;;;;;19.13;100.00;100736.84;5009732;28;20265;-49
2022/06/08 03:34:43;;;;;;;75.47;35.27;;;;;;;18.66;100.00;100735.47;5004947;28;20294;-48
2022/06/08 03:37:10;;;;;;;72.57;35.27;;;;;;;18.85;100.00;100727.03;5004170;28;20301;-46
2022/06/08 03:39:39;;;;;;;79.90;35.87;;;;;;;19.03;100.00;100731.31;5012310;28;20298;-46
2022/06/08 03:42:05;;;;;;;71.00;35.70;;;;;;;18.65;100.00;100725.72;4999952;28;20267;-45
2022/06/08 03:44:32;;;;;;;70.17;34.07;;;;;;;18.86;100.00;100721.38;5009149;28;20022;-49
2022/06/08 03:47:04;;;;;;;74.73;34.07;;;;;;;18.84;100.00;100728.94;5023699;28;20267;-49
2022/06/08 03:49:30;;;;;;;66.70;33.27;;;;;;;19.13;100.00;100730.59;5018127;28;20050;-47
2022/06/08 03:51:58;;;;;;;;;;;;;;;18.89;100.00;100728.16;5012405;28;20275;-49
2022/06/08 03:54:31;;;;;;;65.40;32.33;;;;;;;19.23;100.00;100730.72;5019022;28;19921;-46
2022/06/08 03:57:03;;;;;;;66.23;33.50;;;;;;;19.29;100.00;100735.09;5022746;28;20265;-49
2022/06/08 03:59:32;;;;;;;66.30;33.97;;;;;;;19.09;100.00;100743.03;5010775;28;20283;-46
2022/06/08 04:02:00;;;;;;;74.57;35.27;;;;;;;18.91;100.00;100729.56;4999357;28;20348;-47
2022/06/08 04:04:26;;;;;;;;;;;;;;;18.80;100.00;100735.09;5009946;28;20270;-47
2022/06/08 04:06:52;;;;;;;63.47;31.13;;;;;;;19.09;100.00;100740.31;5022665;28;19953;-46
2022/06/08 04:09:18;;;;;;;;;;;;;;;19.42;100.00;100742.00;5002862;28;20041;-46
2022/06/08 04:11:47;;;;;;;60.50;29.77;;;;;;;19.19;100.00;100740.44;5012082;28;19920;-48
2022/06/08 04:14:13;;;;;;;58.00;31.45;;;;;;;19.52;100.00;100738.56;5000125;28;20295;-47
2022/06/08 04:16:41;;;;;;;55.00;28.57;;;;;;;19.09;100.00;100732.19;5007060;28;20034;-46
2022/06/08 04:19:09;;;;;;;54.10;28.97;;;;;;;18.99;100.00;100724.78;5007575;28;20271;-48
2022/06/08 04:21:37;;;;;;;50.27;28.17;;;;;;;19.03;100.00;100721.31;4999871;28;20850;-46
2022/06/08 04:24:07;;;;;;;54.97;29.60;;;;;;;18.96;100.00;100720.66;5028998;28;20264;-46
2022/06/08 04:26:34;;;;;;;52.93;28.97;;;;;;;19.12;100.00;100728.97;5002619;28;20278;-49
2022/06/08 04:29:05;;;;;;;51.90;25.83;;;;;;;18.84;100.00;100728.94;5004211;28;20268;-49
2022/06/08 04:31:33;;;;;;;;;;;;;;;19.27;100.00;100733.75;5010735;28;20347;-50
2022/06/08 04:34:05;;;;;;;47.60;25.80;;;;;;;19.27;100.00;100726.41;4995329;28;20006;-50
2022/06/08 04:36:35;;;;;;;48.93;24.70;;;;;;;19.11;100.00;100727.34;5005134;28;20265;-45
2022/06/08 04:39:04;;;;;;;49.47;27.00;;;;;;;19.06;100.00;100722.69;5003671;28;20318;-49
2022/06/08 04:41:32;;;;;;;46.30;24.43;;;;;;;19.27;100.00;100725.63;4997216;28;20307;-48
2022/06/08 04:43:58;;;;;;;47.57;25.37;;;;;;;19.13;100.00;100720.59;5010493;28;20362;-49
2022/06/08 04:46:26;;;;;;;44.23;23.63;;;;;;;19.33;100.00;100717.25;5005976;28;20265;-49
2022/06/08 04:48:53;;;;;;;42.70;24.17;;;;;;;19.51;100.00;100730.69;5001856;28;20282;-46
2022/06/08 04:51:23;;;;;;;43.50;24.40;;;;;;;19.40;100.00;100718.94;4998239;28;20276;-49
2022/06/08 04:53:50;;;;;;;38.83;21.73;;;;;;;19.75;100.00;100718.41;5008156;28;20284;-49
2022/06/08 04:56:18;;;;;;;49.77;25.00;;;;;;;19.47;100.00;100725.78;4996726;28;20272;-49
2022/06/08 04:58:45;;;;;;;38.97;21.83;;;;;;;19.19;100.00;100724.19;5003193;28;20299;-51
2022/06/08 05:01:11;;;;;;;48.25;23.13;;;;;;;19.58;100.00;100721.25;5003929;28;20289;-51
2022/06/08 05:03:37;;;;;;;37.75;21.80;;;;;;;19.55;100.00;100719.06;4996405;28;20043;-51
2022/06/08 05:06:03;;;;;;;36.60;20.23;;;;;;;19.45;100.00;100708.94;4994342;28;20038;-50
2022/06/08 05:08:34;;;;;;;35.90;20.37;;;;;;;19.72;100.00;100705.38;5004759;28;20034;-51
2022/06/08 05:11:04;;;;;;;35.03;21.20;;;;;;;19.94;100.00;100703.63;5002317;28;20276;-50
2022/06/08 05:13:32;;;;;;;34.10;19.83;;;;;;;19.82;100.00;100704.59;4996789;28;20269;-50
2022/06/08 05:16:04;;;;;;;31.73;19.17;;;;;;;20.09;100.00;100700.19;5008025;28;20290;-50
2022/06/08 05:18:32;;;;;;;38.30;20.00;;;;;;;20.26;100.00;100691.84;4998380;28;20275;-48
2022/06/08 05:21:00;;;;;;;33.50;19.03;;;;;;;19.87;100.00;100691.09;5001023;28;20280;-49
2022/06/08 05:23:33;;;;;;;33.83;18.87;;;;;;;20.03;100.00;100688.47;5005661;28;20290;-50
2022/06/08 05:26:02;;;;;;;34.27;18.60;;;;;;;20.14;100.00;100679.34;4992570;28;20303;-52
2022/06/08 05:28:30;;;;;;;30.83;17.63;;;;;;;20.49;100.00;100677.84;4997790;28;20038;-49
2022/06/08 05:30:59;;;;;;;28.70;16.40;;;;;;;19.82;100.00;100682.91;5001034;28;20280;-51
2022/06/08 05:33:30;;;;;;;30.07;17.07;;;;;;;19.66;100.00;100683.91;5005426;28;20065;-47
2022/06/08 05:36:00;;;;;;;30.60;17.87;;;;;;;20.27;100.00;100666.34;4994649;28;20346;-46
2022/06/08 05:38:27;;;;;;;28.77;16.40;;;;;;;20.42;100.00;100665.59;5006135;28;20045;-47
2022/06/08 05:40:55;;;;;;;29.23;16.50;;;;;;;20.62;100.00;100665.66;5000621;28;20049;-47
2022/06/08 05:43:22;;;;;;;30.07;17.37;;;;;;;20.45;100.00;100657.72;4997828;28;20131;-52
2022/06/08 05:45:52;;;;;;;30.50;14.97;;;;;;;20.54;100.00;100662.66;5006921;28;20034;-51
2022/06/08 05:48:18;;;;;;;;;;;;;;;21.14;100.00;100656.81;5005032;28;20068;-51
2022/06/08 05:50:45;;;;;;;27.38;16.38;;;;;;;20.84;100.00;100651.06;4999480;28;19939;-50
2022/06/08 05:53:15;;;;;;;24.63;16.57;;;;;;;21.42;100.00;100652.72;4998762;28;20039;-51
2022/06/08 05:55:41;;;;;;;27.90;18.40;;;;;;;21.31;100.00;100653.81;5006712;28;20035;-48
2022/06/08 05:58:07;;;;;;;34.22;18.27;;;;;;;21.55;100.00;100651.34;4995329;28;20094;-50
2022/06/08 06:00:36;;;;;;;24.27;15.00;;;;;;;21.02;100.00;100636.16;5004107;28;20057;-49
2022/06/08 06:03:02;;;;;;;29.63;15.60;;;;;;;20.74;100.00;100642.88;5001346;28;20060;-48
2022/06/08 06:05:31;;;;;;;24.33;15.05;;;;;;;20.66;100.00;100643.41;4996767;28;20098;-49
2022/06/08 06:08:01;;;;;;;24.00;14.23;;;;;;;20.93;100.00;100640.47;5006737;28;20049;-51
2022/06/08 06:10:35;;;;;;;19.80;12.77;;;;;;;20.63;100.00;100634.69;4996783;28;20065;-50
2022/06/08 06:13:03;;;;;;;20.20;12.67;;;;;;;20.76;100.00;100638.81;4991154;28;20050;-48
2022/06/08 06:16:04;;;;;;;22.30;12.53;;;;;;;20.81;100.00;100631.78;4997998;28;20043;-49
2022/06/08 06:18:31;;;;;;;19.50;11.73;;;;;;;21.03;100.00;100629.63;5010534;28;20104;-50
2022/06/08 06:21:14;;;;;;;17.35;11.25;;;;;;;21.04;100.00;100639.41;5008114;28;20090;-50
2022/06/08 06:23:56;;;;;;;18.40;11.07;;;;;;;21.32;100.00;100625.53;5009733;28;20072;-50
2022/06/08 06:26:31;;;;;;;21.83;11.83;;;;;;;21.37;100.00;100630.16;5000443;28;20026;-46
2022/06/08 06:29:16;;;;;;;19.13;11.60;;;;;;;21.20;100.00;100628.53;4999147;28;20053;-47
2022/06/08 06:32:12;;;;;;;18.10;10.20;;;;;;;21.80;100.00;100630.66;5008985;28;20045;-48
2022/06/08 06:34:45;;;;;;;12.93;9.17;;;;;;;20.88;100.00;100621.44;5002315;28;20047;-48
2022/06/08 06:37:12;;;;;;;15.33;9.47;;;;;;;20.66;100.00;100622.47;5007726;28;20034;-49
2022/06/08 06:39:38;;;;;;;13.48;8.95;;;;;;;21.01;100.00;100620.94;5010827;28;20030;-48
2022/06/08 06:42:32;;;;;;;12.00;8.20;;;;;;;21.22;100.00;100615.50;5008570;28;20103;-50
2022/06/08 06:45:26;;;;;;;11.33;8.13;;;;;;;20.95;100.00;100613.84;5003652;28;20053;-47
2022/06/08 06:48:00;;;;;;;15.60;9.30;;;;;;;20.92;100.00;100623.38;5005095;28;20060;-47
2022/06/08 06:50:28;;;;;;;12.73;8.53;;;;;;;21.12;100.00;100621.75;5008697;28;20034;-47
2022/06/08 06:52:59;;;;;;;14.03;8.27;;;;;;;21.17;100.00;100618.19;5009832;28;20031;-49
2022/06/08 06:55:30;;;;;;;13.67;8.33;;;;;;;21.45;100.00;100611.38;5011095;28;20032;-49
2022/06/08 06:58:00;;;;;;;14.50;8.07;;;;;;;21.31;100.00;100623.91;5010869;28;20026;-49
2022/06/08 07:00:32;;;;;;;12.80;7.67;;;;;;;21.78;100.00;100617.31;5010883;28;20097;-48
2022/06/08 07:03:00;;;;;;;14.57;8.00;;;;;;;21.74;100.00;100618.16;5012225;28;20030;-52
2022/06/08 07:05:29;;;;;;;;;;;;;;;21.48;100.00;100615.47;5011676;28;20022;-51
2022/06/08 07:07:55;;;;;;;9.07;6.30;;;;;;;21.68;100.00;100617.34;5002010;28;19921;-49
2022/06/08 07:10:20;;;;;;;9.73;6.57;;;;;;;21.55;100.00;100621.44;5008628;28;20042;-48
2022/06/08 07:12:46;;;;;;;12.85;6.78;;;;;;;22.14;100.00;100601.94;5004634;28;20042;-46
2022/06/08 07:15:13;;;;;;;;;;;;;;;21.94;100.00;100608.31;5006258;28;20061;-46
2022/06/08 07:17:40;;;;;;;;;;;;;;;22.31;100.00;100612.47;4998286;28;19924;-48
2022/06/08 07:20:07;;;;;;;14.33;6.10;;;;;;;22.46;100.00;100603.41;5012290;28;19943;-48
2022/06/08 07:22:33;;;;;;;11.20;5.80;;;;;;;21.62;100.00;100602.91;5006555;28;20109;-49
2022/06/08 07:24:59;;;;;;;10.23;5.75;;;;;;;21.67;100.00;100599.41;4994538;28;20039;-48
2022/06/08 07:27:24;;;;;;;11.40;5.57;;;;;;;22.11;100.00;100608.75;5007452;28;20042;-49
2022/06/08 07:29:51;;;;;;;12.15;5.65;;;;;;;22.18;100.00;100598.41;4997608;28;20039;-49
2022/06/08 07:32:17;;;;;;;10.50;5.85;;;;;;;21.65;100.00;100606.19;5010285;28;20046;-51
2022/06/08 07:34:43;;;;;;;11.45;5.35;;;;;;;21.71;100.00;100599.66;5021109;28;20038;-51
2022/06/08 07:37:09;;;;;;;9.73;5.30;;;;;;;21.58;100.00;100593.66;5022259;28;20042;-51
2022/06/08 07:39:35;;;;;;;9.48;5.28;;;;;;;21.52;100.00;100592.06;5028032;28;20110;-48
2022/06/08 07:42:01;;;;;;;9.55;5.50;;;;;;;21.77;100.00;100591.19;5016656;28;20060;-51
2022/06/08 07:44:26;;;;;;;10.07;5.35;;;;;;;21.90;100.00;100581.63;5027480;28;20086;-51
2022/06/08 07:46:52;;;;;;;;;;;;;;;22.46;100.00;100582.47;5022234;28;20046;-48
2022/06/08 07:49:37;;;;;;;10.00;5.20;;;;;;;22.65;100.00;100594.63;5015959;28;19919;-52
2022/06/08 07:52:05;;;;;;;7.23;4.83;;;;;;;22.90;100.00;100593.63;5016152;28;20044;-49
2022/06/08 07:54:31;;;;;;;12.30;5.67;;;;;;;22.78;100.00;100597.50;5027151;28;20112;-48
2022/06/08 07:56:58;;;;;;;;;;;;;;;22.82;100.00;100592.31;5023082;28;20105;-48
2022/06/08 07:59:26;;;;;;;14.43;4.57;;;;;;;22.33;100.00;100592.06;5020521;28;19917;-48
2022/06/08 08:01:52;;;;;;;8.97;4.50;;;;;;;22.48;100.00;100596.63;5031825;28;20271;-51
2022/06/08 08:04:18;;;;;;;6.00;4.20;;;;;;;22.88;100.00;100604.00;5030389;28;20034;-50
2022/06/08 08:06:44;;;;;;;;;;;;;;;23.10;100.00;100600.81;5032476;28;20064;-47
2022/06/08 08:09:17;;;;;;;11.40;4.50;;;;;;;23.00;100.00;100590.78;5031872;28;19947;-53
2022/06/08 08:11:45;;;;;;;9.60;4.60;;;;;;;23.42;100.00;100595.91;5028485;28;20094;-48
2022/06/08 08:14:12;;;;;;;11.17;4.43;;;;;;;23.41;100.00;100595.13;5031662;28;20038;-50
2022/06/08 08:16:39;;;;;;;12.73;4.57;;;;;;;23.01;100.00;100589.69;5030536;28;20071;-51
2022/06/08 08:19:05;;;;;;;8.37;3.90;;;;;;;22.96;100.00;100587.03;5032175;28;20042;-47
2022/06/08 08:21:32;;;;;;;8.48;4.10;;;;;;;23.09;100.00;100587.47;5029452;28;20038;-52
2022/06/08 08:23:59;;;;;;;7.83;3.40;;;;;;;23.29;100.00;100592.75;5031090;28;20033;-50
2022/06/08 08:26:27;;;;;;;17.13;8.37;;;;;;;22.94;100.00;100591.94;5017401;28;20061;-52
2022/06/08 08:28:53;;;;;;;13.63;5.30;;;;;;;23.09;100.00;100591.00;5023911;28;20034;-49
2022/06/08 08:31:19;;;;;;;10.67;4.40;;;;;;;22.80;100.00;100590.97;5024040;28;20033;-49
2022/06/08 08:33:45;;;;;;;;;;;;;;;22.84;100.00;100583.88;5012123;28;20073;-49
2022/06/08 08:36:11;;;;;;;12.93;4.67;;;;;;;23.16;100.00;100587.94;5028417;28;19921;-48
2022/06/08 08:38:37;;;;;;;;;;;;;;;23.57;100.00;100587.56;5028886;28;20040;-48
2022/06/08 08:41:04;;;;;;;9.37;5.27;;;;;;;23.42;100.00;100591.28;5031494;28;19917;-50
2022/06/08 08:43:36;;;;;;;9.57;4.77;;;;;;;23.81;100.00;100596.84;5031943;28;20034;-52
2022/06/08 08:46:20;;;;;;;7.17;4.23;;;;;;;23.44;100.00;100583.63;5028450;28;20045;-52
2022/06/08 08:48:52;;;;;;;12.53;5.43;;;;;;;23.48;100.00;100586.56;5030353;28;20038;-53
2022/06/08 08:51:23;;;;;;;17.57;5.67;;;;;;;23.41;100.00;100595.13;5026335;28;20097;-53
2022/06/08 08:54:04;;;;;;;9.77;5.27;;;;;;;23.33;100.00;100582.09;5025184;28;20034;-48
2022/06/08 08:56:40;;;;;;;16.30;6.17;;;;;;;23.83;100.00;100576.34;5025494;28;20026;-52
2022/06/08 08:59:12;;;;;;;21.00;9.00;;;;;;;23.85;100.00;100579.59;5017221;28;20125;-51
2022/06/08 09:01:41;;;;;;;11.47;4.43;;;;;;;24.27;100.00;100573.66;5029192;28;20044;-52
2022/06/08 09:04:33;;;;;;;13.07;6.60;;;;;;;23.56;100.00;100580.50;5029693;28;20034;-49
2022/06/08 09:07:10;;;;;;;13.03;4.47;;;;;;;23.73;100.00;100582.75;4999601;28;20042;-50
2022/06/08 09:09:36;;;;;;;10.87;4.23;;;;;;;24.01;100.00;100582.16;5028672;28;20118;-49
2022/06/08 09:12:03;;;;;;;13.50;5.17;;;;;;;23.42;100.00;100590.47;5010483;28;20026;-49
2022/06/08 09:14:52;;;;;;;11.87;4.13;;;;;;;23.80;100.00;100579.69;5030616;28;20037;-49
2022/06/08 09:17:28;;;;;;;7.25;4.00;;;;;;;23.29;100.00;100570.91;5028305;28;20034;-50
2022/06/08 09:19:54;;;;;;;;;;;;;;;23.33;100.00;100582.09;5028715;28;20052;-52
2022/06/08 09:22:29;;;;;;;11.27;4.47;;;;;;;23.28;100.00;100585.66;5026797;28;19941;-52
2022/06/08 09:25:22;;;;;;;9.93;4.60;;;;;;;23.67;100.00;100575.72;5030932;28;20518;-51
2022/06/08 09:27:50;;;;;;;13.00;3.80;;;;;;;22.82;100.00;100594.22;5030880;28;20048;-51
2022/06/08 09:30:23;;;;;;;9.93;3.90;;;;;;;23.16;100.00;100579.75;5030307;28;20044;-50
2022/06/08 09:33:27;;;;;;;7.33;3.80;;;;;;;23.58;100.00;100578.28;5007682;28;20046;-50
2022/06/08 09:36:01;;;;;;;8.23;3.70;;;;;;;23.71;100.00;100579.50;5011985;28;20041;-51
2022/06/08 09:38:29;;;;;;;14.60;4.33;;;;;;;23.74;100.00;100580.81;5013042;28;20046;-49
2022/06/08 09:41:16;;;;;;;8.30;3.17;;;;;;;23.39;100.00;100580.13;5030635;28;20112;-49
2022/06/08 09:44:08;;;;;;;12.23;3.35;;;;;;;23.63;100.00;100583.69;5030571;28;20071;-53
2022/06/08 09:52:28;;;;;;;9.80;3.20;;;;;;;23.37;100.00;100593.25;5028615;28;20030;-51
2022/06/08 09:55:20;;;;;;;11.30;3.83;;;;;;;23.51;100.00;100588.72;5030529;28;20113;-51
2022/06/08 09:58:14;;;;;;;9.33;3.60;;;;;;;23.03;100.00;100592.94;4998548;28;20037;-49
2022/06/08 10:00:48;;;;;;;12.00;4.37;;;;;;;23.28;100.00;100587.59;5017542;28;20054;-49
2022/06/08 10:03:25;;;;;;;9.40;2.93;;;;;;;23.37;100.00;100598.69;5027301;28;20030;-51
2022/06/08 10:06:03;;;;;;;6.67;3.03;;;;;;;22.52;100.00;100596.88;5030326;28;20061;-53
2022/06/08 10:08:52;;;;;;;9.80;2.20;;;;;;;22.42;100.00;100624.16;5024429;28;20046;-49
2022/06/08 10:11:36;;;;;;;7.60;2.23;;;;;;;22.12;100.00;100604.94;5011176;28;20042;-47
2022/06/08 10:14:10;;;;;;;12.83;3.17;;;;;;;22.81;100.00;100601.59;5010642;28;20092;-48
2022/06/08 10:16:40;;;;;;;8.73;2.00;;;;;;;22.75;100.00;100600.00;5030488;28;20026;-51
2022/06/08 10:19:13;;;;;;;13.60;3.07;;;;;;;23.01;100.00;100597.88;5033326;28;20041;-51
2022/06/08 10:21:41;;;;;;;20.47;5.73;;;;;;;22.89;100.00;100594.72;5033549;28;20094;-51
2022/06/08 10:24:31;;;;;;;6.57;2.60;;;;;;;22.68;100.00;100611.22;5031640;28;20117;-52
2022/06/08 10:27:22;;;;;;;10.20;2.40;;;;;;;21.96;100.00;100622.44;5031747;28;20028;-51
2022/06/08 10:30:24;;;;;;;9.83;2.13;;;;;;;21.58;100.00;100595.59;5027754;28;20038;-51
2022/06/08 10:32:57;;;;;;;8.77;2.20;;;;;;;21.53;100.00;100584.69;5003769;28;20055;-49
2022/06/08 10:35:43;;;;;;;10.00;2.60;;;;;;;21.70;100.00;100595.31;5001908;28;20094;-52
2022/06/08 10:38:19;;;;;;;15.57;2.50;;;;;;;22.23;100.00;100588.56;5002173;28;20058;-52
2022/06/08 10:40:53;;;;;;;11.32;3.13;;;;;;;21.96;100.00;100606.13;5004004;28;20039;-50
2022/06/08 10:43:27;;;;;;;7.53;2.87;;;;;;;21.77;100.00;100602.06;5005361;28;20049;-50
2022/06/08 10:46:03;;;;;;;10.70;2.80;;;;;;;22.26;100.00;100601.63;5006770;28;20026;-48
2022/06/08 10:48:34;;;;;;;21.80;6.43;;;;;;;22.12;100.00;100599.50;5013711;28;20056;-51
2022/06/08 10:51:09;;;;;;;10.47;3.37;;;;;;;21.24;100.00;100613.31;5012326;28;20041;-48
2022/06/08 10:56:34;;;;;;;12.27;3.67;;;;;;;20.58;100.00;100595.84;5005665;28;20064;-50
2022/06/08 10:59:05;;;;;;;17.90;4.77;;;;;;;21.14;100.00;100592.38;5006265;28;20097;-47
2022/06/08 11:01:49;;;;;;;25.57;6.17;;;;;;;20.68;100.00;100584.19;5000792;28;20086;-50
2022/06/08 11:04:26;;;;;;;33.20;7.03;;;;;;;20.51;100.00;100584.41;5001839;28;22521;-48
2022/06/08 11:06:54;;;;;;;28.03;8.73;;;;;;;20.63;100.00;100587.69;5005810;28;20047;-48
2022/06/08 11:09:32;;;;;;;21.53;8.73;;;;;;;20.01;100.00;100593.78;5005307;28;20102;-50
2022/06/08 11:12:13;;;;;;;51.60;10.13;;;;;;;20.13;100.00;100577.25;4997189;28;20053;-50
2022/06/08 11:14:44;;;;;;;39.00;10.13;;;;;;;20.18;100.00;100593.56;5007608;28;20050;-50
2022/06/08 11:17:32;;;;;;;31.07;9.47;;;;;;;20.58;100.00;100580.34;5004014;28;20094;-51
2022/06/08 11:20:22;;;;;;;39.17;8.77;;;;;;;20.18;100.00;100579.97;4997026;28;20087;-49
2022/06/08 11:22:57;;;;;;;28.67;8.07;;;;;;;21.83;100.00;100586.53;5006331;28;20046;-52
2022/06/08 11:25:52;;;;;;;29.90;7.47;;;;;;;21.58;100.00;100593.66;5005666;28;20045;-47
2022/06/08 11:28:24;;;;;;;39.40;7.73;;;;;;;21.11;100.00;100579.34;4999236;28;20043;-51
2022/06/08 11:30:51;;;;;;;30.40;9.10;;;;;;;20.98;100.00;100572.53;5006213;28;20269;-50
2022/06/08 11:33:19;;;;;;;35.37;9.03;;;;;;;21.24;100.00;100580.69;5013576;28;20288;-52
2022/06/08 11:36:10;;;;;;;29.37;9.73;;;;;;;21.31;100.00;100581.22;5017753;28;20065;-50
2022/06/08 11:38:45;;;;;;;31.17;10.40;;;;;;;21.74;100.00;100563.72;5001782;28;20304;-47
2022/06/08 11:41:36;;;;;;;42.50;10.50;;;;;;;21.97;100.00;100558.75;5022890;28;20454;-51
2022/06/08 11:44:16;;;;;;;36.70;10.43;;;;;;;21.24;100.00;100553.50;5044057;28;20036;-51
2022/06/08 11:46:53;;;;;;;25.37;8.77;;;;;;;21.08;100.00;100551.88;5032866;28;20044;-52